sensor_id;sensor_type;location;lat;lon;timestamp;pressure;altitude;pressure_sealevel;temperature;humidity
73674;BME280;61975;48.660;10.164;2023-11-21T00:01:57;95044.63;;;8.24;100.00
73674;BME280;61975;48.660;10.164;2023-11-21T00:04:23;95044.22;;;8.22;100.00
73674;BME280;61975;48.660;10.164;2023-11-21T00:06:49;95038.25;;;8.20;100.00
73674;BME280;61975;48.660;10.164;2023-11-21T00:09:14;95034.78;;;8.26;100.00
73674;BME280;61975;48.660;10.164;2023-11-21T00:11:44;95037.56;;;8.30;100.00
73674;BME280;61975;48.660;10.164;2023-11-21T00:14:11;95040.75;;;8.32;100.00
73674;BME280;61975;48.660;10.164;2023-11-21T00:16:36;95036.41;;;8.34;100.00
73674;BME280;61975;48.660;10.164;2023-11-21T00:19:01;95033.25;;;8.36;100.00
73674;BME280;61975;48.660;10.164;2023-11-21T00:21:27;95036.44;;;8.38;100.00
73674;BME280;61975;48.660;10.164;2023-11-21T00:23:52;95035.25;;;8.39;100.00
73674;BME280;61975;48.660;10.164;2023-11-21T00:26:17;95031.31;;;8.40;100.00
73674;BME280;61975;48.660;10.164;2023-11-21T00:28:43;95036.84;;;8.40;100.00
73674;BME280;61975;48.660;10.164;2023-11-21T00:31:08;95025.78;;;8.40;100.00
73674;BME280;61975;48.660;10.164;2023-11-21T00:33:36;95027.78;;;8.39;100.00
73674;BME280;61975;48.660;10.164;2023-11-21T00:36:02;95014.31;;;8.38;100.00
73674;BME280;61975;48.660;10.164;2023-11-21T00:38:27;95012.34;;;8.38;100.00
73674;BME280;61975;48.660;10.164;2023-11-21T00:40:53;95013.13;;;8.39;100.00
73674;BME280;61975;48.660;10.164;2023-11-21T00:43:24;95021.44;;;8.39;100.00
73674;BME280;61975;48.660;10.164;2023-11-21T00:45:49;95015.91;;;8.39;100.00
73674;BME280;61975;48.660;10.164;2023-11-21T00:48:15;95019.44;;;8.36;100.00
73674;BME280;61975;48.660;10.164;2023-11-21T00:50:40;95019.44;;;8.36;100.00
73674;BME280;61975;48.660;10.164;2023-11-21T00:53:06;95018.28;;;8.37;100.00
73674;BME280;61975;48.660;10.164;2023-11-21T00:55:32;95018.28;;;8.37;100.00
73674;BME280;61975;48.660;10.164;2023-11-21T00:57:58;95013.13;;;8.35;100.00
73674;BME280;61975;48.660;10.164;2023-11-21T01:00:23;95012.72;;;8.33;100.00
73674;BME280;61975;48.660;10.164;2023-11-21T01:02:49;95015.84;;;8.32;100.00
73674;BME280;61975;48.660;10.164;2023-11-21T01:05:14;95014.28;;;8.31;100.00
73674;BME280;61975;48.660;10.164;2023-11-21T01:07:39;95017.41;;;8.29;100.00
73674;BME280;61975;48.660;10.164;2023-11-21T01:10:05;95012.28;;;8.28;100.00
73674;BME280;61975;48.660;10.164;2023-11-21T01:12:36;95017.75;;;8.24;100.00
73674;BME280;61975;48.660;10.164;2023-11-21T01:15:03;95015.78;;;8.21;100.00
73674;BME280;61975;48.660;10.164;2023-11-21T01:17:29;95017.28;;;8.19;100.00
73674;BME280;61975;48.660;10.164;2023-11-21T01:19:54;95019.66;;;8.17;100.00
73674;BME280;61975;48.660;10.164;2023-11-21T01:22:22;95010.19;;;8.14;100.00
73674;BME280;61975;48.660;10.164;2023-11-21T01:24:52;95012.13;;;8.14;100.00
73674;BME280;61975;48.660;10.164;2023-11-21T01:27:17;95011.31;;;8.13;100.00
73674;BME280;61975;48.660;10.164;2023-11-21T01:29:43;95010.94;;;8.11;100.00
73674;BME280;61975;48.660;10.164;2023-11-21T01:32:09;95011.31;;;8.10;100.00
73674;BME280;61975;48.660;10.164;2023-11-21T01:34:35;95010.13;;;8.11;100.00
73674;BME280;61975;48.660;10.164;2023-11-21T01:37:00;95008.16;;;8.11;100.00
73674;BME280;61975;48.660;10.164;2023-11-21T01:39:26;95011.72;;;8.12;100.00
73674;BME280;61975;48.660;10.164;2023-11-21T01:41:52;95018.84;;;8.13;100.00
73674;BME280;61975;48.660;10.164;2023-11-21T01:44:17;95020.44;;;8.14;100.00
73674;BME280;61975;48.660;10.164;2023-11-21T01:46:45;95018.03;;;8.12;100.00
73674;BME280;61975;48.660;10.164;2023-11-21T01:49:10;95012.13;;;8.14;100.00
73674;BME280;61975;48.660;10.164;2023-11-21T01:51:39;95010.94;;;8.15;100.00
73674;BME280;61975;48.660;10.164;2023-11-21T01:54:05;95005.41;;;8.15;100.00
73674;BME280;61975;48.660;10.164;2023-11-21T01:56:31;95005.41;;;8.15;100.00
73674;BME280;61975;48.660;10.164;2023-11-21T01:58:57;95003.84;;;8.14;100.00
73674;BME280;61975;48.660;10.164;2023-11-21T02:01:23;94995.94;;;8.12;100.00
73674;BME280;61975;48.660;10.164;2023-11-21T02:03:48;94989.19;;;8.10;100.00
73674;BME280;61975;48.660;10.164;2023-11-21T02:06:13;95006.56;;;8.10;100.00
73674;BME280;61975;48.660;10.164;2023-11-21T02:08:39;95006.56;;;8.10;100.00
73674;BME280;61975;48.660;10.164;2023-11-21T02:11:05;95005.38;;;8.08;100.00
73674;BME280;61975;48.660;10.164;2023-11-21T02:13:31;95009.72;;;8.09;100.00
73674;BME280;61975;48.660;10.164;2023-11-21T02:15:57;95003.78;;;8.07;100.00
73674;BME280;61975;48.660;10.164;2023-11-21T02:18:23;95008.56;;;8.10;100.00
73674;BME280;61975;48.660;10.164;2023-11-21T02:20:48;95004.59;;;8.11;100.00
73674;BME280;61975;48.660;10.164;2023-11-21T02:23:14;95012.47;;;8.09;100.00
73674;BME280;61975;48.660;10.164;2023-11-21T02:25:39;95003.78;;;8.07;100.00
73674;BME280;61975;48.660;10.164;2023-11-21T02:28:07;95011.66;;;8.05;100.00
73674;BME280;61975;48.660;10.164;2023-11-21T02:30:33;95016.78;;;8.03;100.00
73674;BME280;61975;48.660;10.164;2023-11-21T02:32:59;95007.31;;;8.04;100.00
73674;BME280;61975;48.660;10.164;2023-11-21T02:35:25;95003.34;;;8.01;100.00
73674;BME280;61975;48.660;10.164;2023-11-21T02:37:54;95001.34;;;7.98;100.00
73674;BME280;61975;48.660;10.164;2023-11-21T02:40:20;94996.25;;;8.04;100.00
73674;BME280;61975;48.660;10.164;2023-11-21T02:42:50;94993.88;;;8.02;100.00
73674;BME280;61975;48.660;10.164;2023-11-21T02:45:17;94988.34;;;8.02;100.00
73674;BME280;61975;48.660;10.164;2023-11-21T02:47:43;94987.97;;;8.04;100.00
73674;BME280;61975;48.660;10.164;2023-11-21T02:50:09;94984.00;;;8.05;100.00
73674;BME280;61975;48.660;10.164;2023-11-21T02:52:35;94982.38;;;7.97;100.00
73674;BME280;61975;48.660;10.164;2023-11-21T02:55:01;94978.47;;;8.01;100.00
73674;BME280;61975;48.660;10.164;2023-11-21T02:57:27;94983.25;;;8.04;100.00
73674;BME280;61975;48.660;10.164;2023-11-21T02:59:52;94980.44;;;8.01;100.00
73674;BME280;61975;48.660;10.164;2023-11-21T03:02:18;94991.53;;;8.04;100.00
73674;BME280;61975;48.660;10.164;2023-11-21T03:04:43;94992.72;;;8.07;100.00
73674;BME280;61975;48.660;10.164;2023-11-21T03:07:09;94991.94;;;8.06;100.00
73674;BME280;61975;48.660;10.164;2023-11-21T03:09:35;94983.25;;;8.08;100.00
73674;BME280;61975;48.660;10.164;2023-11-21T03:12:04;94991.16;;;8.09;100.00
73674;BME280;61975;48.660;10.164;2023-11-21T03:14:29;94989.19;;;8.10;100.00
73674;BME280;61975;48.660;10.164;2023-11-21T03:16:55;94988.03;;;8.11;100.00
73674;BME280;61975;48.660;10.164;2023-11-21T03:19:23;94988.81;;;8.11;100.00
73674;BME280;61975;48.660;10.164;2023-11-21T03:21:49;94987.22;;;8.10;100.00
73674;BME280;61975;48.660;10.164;2023-11-21T03:24:14;94995.50;;;8.10;100.00
73674;BME280;61975;48.660;10.164;2023-11-21T03:26:44;94993.53;;;8.11;100.00
73674;BME280;61975;48.660;10.164;2023-11-21T03:29:10;94992.75;;;8.10;100.00
73674;BME280;61975;48.660;10.164;2023-11-21T03:31:35;94992.75;;;8.10;100.00
73674;BME280;61975;48.660;10.164;2023-11-21T03:34:01;94990.34;;;8.09;100.00
73674;BME280;61975;48.660;10.164;2023-11-21T03:36:26;94989.59;;;8.08;100.00
73674;BME280;61975;48.660;10.164;2023-11-21T03:38:52;94988.41;;;8.09;100.00
73674;BME280;61975;48.660;10.164;2023-11-21T03:41:17;94988.78;;;8.08;100.00
73674;BME280;61975;48.660;10.164;2023-11-21T03:43:42;94989.59;;;8.08;100.00
73674;BME280;61975;48.660;10.164;2023-11-21T03:46:08;94995.13;;;8.08;100.00
73674;BME280;61975;48.660;10.164;2023-11-21T03:48:33;94988.78;;;8.08;100.00
73674;BME280;61975;48.660;10.164;2023-11-21T03:50:58;94984.81;;;8.09;100.00
73674;BME280;61975;48.660;10.164;2023-11-21T03:53:24;94984.81;;;8.09;100.00
73674;BME280;61975;48.660;10.164;2023-11-21T03:55:49;94991.16;;;8.09;100.00
73674;BME280;61975;48.660;10.164;2023-11-21T03:58:15;94991.16;;;8.09;100.00
73674;BME280;61975;48.660;10.164;2023-11-21T04:00:40;94989.19;;;8.10;100.00
73674;BME280;61975;48.660;10.164;2023-11-21T04:03:06;94991.97;;;8.10;100.00
73674;BME280;61975;48.660;10.164;2023-11-21T04:05:31;94994.28;;;8.04;100.00
73674;BME280;61975;48.660;10.164;2023-11-21T04:07:56;94995.88;;;8.05;100.00
73674;BME280;61975;48.660;10.164;2023-11-21T04:10:22;94997.44;;;8.06;100.00
73674;BME280;61975;48.660;10.164;2023-11-21T04:12:47;95002.97;;;8.06;100.00
73674;BME280;61975;48.660;10.164;2023-11-21T04:15:13;95010.06;;;8.04;100.00
73674;BME280;61975;48.660;10.164;2023-11-21T04:17:40;95003.78;;;8.07;100.00
73674;BME280;61975;48.660;10.164;2023-11-21T04:20:06;94995.06;;;8.05;100.00
73674;BME280;61975;48.660;10.164;2023-11-21T04:22:36;94999.44;;;8.06;100.00
73674;BME280;61975;48.660;10.164;2023-11-21T04:25:02;95001.78;;;8.07;100.00
73674;BME280;61975;48.660;10.164;2023-11-21T04:27:27;95002.59;;;8.08;100.00
73674;BME280;61975;48.660;10.164;2023-11-21T04:29:55;95002.22;;;8.09;100.00
73674;BME280;61975;48.660;10.164;2023-11-21T04:32:21;95004.97;;;8.09;100.00
73674;BME280;61975;48.660;10.164;2023-11-21T04:34:46;95003.78;;;8.07;100.00
73674;BME280;61975;48.660;10.164;2023-11-21T04:37:11;95002.22;;;8.06;100.00
73674;BME280;61975;48.660;10.164;2023-11-21T04:39:37;95007.72;;;8.06;100.00
73674;BME280;61975;48.660;10.164;2023-11-21T04:42:02;95002.22;;;8.06;100.00
73674;BME280;61975;48.660;10.164;2023-11-21T04:44:28;95007.31;;;8.04;100.00
73674;BME280;61975;48.660;10.164;2023-11-21T04:46:53;95006.50;;;8.03;100.00
73674;BME280;61975;48.660;10.164;2023-11-21T04:49:19;95014.03;;;8.03;100.00
73674;BME280;61975;48.660;10.164;2023-11-21T04:51:44;95012.41;;;8.02;100.00
73674;BME280;61975;48.660;10.164;2023-11-21T04:54:09;95009.66;;;8.02;100.00
73674;BME280;61975;48.660;10.164;2023-11-21T04:56:35;95011.22;;;7.99;100.00
73674;BME280;61975;48.660;10.164;2023-11-21T04:59:00;95019.09;;;7.97;100.00
73674;BME280;61975;48.660;10.164;2023-11-21T05:01:26;95017.13;;;7.98;100.00
73674;BME280;61975;48.660;10.164;2023-11-21T05:03:51;95023.84;;;7.97;100.00
73674;BME280;61975;48.660;10.164;2023-11-21T05:06:17;95022.66;;;7.98;100.00
73674;BME280;61975;48.660;10.164;2023-11-21T05:08:43;95022.66;;;7.98;100.00
73674;BME280;61975;48.660;10.164;2023-11-21T05:11:08;95031.31;;;7.96;100.00
73674;BME280;61975;48.660;10.164;2023-11-21T05:13:36;95029.34;;;7.97;100.00
73674;BME280;61975;48.660;10.164;2023-11-21T05:16:02;95037.66;;;7.97;100.00
73674;BME280;61975;48.660;10.164;2023-11-21T05:18:29;95026.97;;;7.95;100.00
73674;BME280;61975;48.660;10.164;2023-11-21T05:20:55;95023.84;;;7.97;100.00
73674;BME280;61975;48.660;10.164;2023-11-21T05:23:21;95030.53;;;7.96;100.00
73674;BME280;61975;48.660;10.164;2023-11-21T05:25:46;95033.31;;;7.96;100.00
73674;BME280;61975;48.660;10.164;2023-11-21T05:28:12;95036.38;;;7.87;100.00
73674;BME280;61975;48.660;10.164;2023-11-21T05:30:38;95028.50;;;7.89;100.00
73674;BME280;61975;48.660;10.164;2023-11-21T05:33:05;95032.06;;;7.90;100.00
73674;BME280;61975;48.660;10.164;2023-11-21T05:35:31;95039.94;;;7.88;100.00
73674;BME280;61975;48.660;10.164;2023-11-21T05:37:56;95035.19;;;7.88;100.00
73674;BME280;61975;48.660;10.164;2023-11-21T05:40:22;95032.81;;;7.87;100.00
73674;BME280;61975;48.660;10.164;2023-11-21T05:42:47;95032.81;;;7.87;100.00
73674;BME280;61975;48.660;10.164;2023-11-21T05:45:13;95038.34;;;7.87;100.00
73674;BME280;61975;48.660;10.164;2023-11-21T05:47:43;95033.94;;;7.82;100.00
73674;BME280;61975;48.660;10.164;2023-11-21T05:50:09;95044.69;;;7.87;100.00
73674;BME280;61975;48.660;10.164;2023-11-21T05:52:37;95039.47;;;7.82;100.00
73674;BME280;61975;48.660;10.164;2023-11-21T05:55:04;95055.28;;;7.82;100.00
73674;BME280;61975;48.660;10.164;2023-11-21T05:57:36;95051.34;;;7.83;100.00
73674;BME280;61975;48.660;10.164;2023-11-21T06:00:06;95048.91;;;7.78;100.00
73674;BME280;61975;48.660;10.164;2023-11-21T06:02:43;95047.75;;;7.79;100.00
73674;BME280;61975;48.660;10.164;2023-11-21T06:05:09;95058.00;;;7.78;100.00
73674;BME280;61975;48.660;10.164;2023-11-21T06:07:34;95057.25;;;7.81;100.00
73674;BME280;61975;48.660;10.164;2023-11-21T06:10:04;95055.28;;;7.82;100.00
73674;BME280;61975;48.660;10.164;2023-11-21T06:12:32;95061.97;;;7.81;100.00
73674;BME280;61975;48.660;10.164;2023-11-21T06:15:04;95054.06;;;7.79;100.00
73674;BME280;61975;48.660;10.164;2023-11-21T06:17:33;95059.94;;;7.78;100.00
73674;BME280;61975;48.660;10.164;2023-11-21T06:20:02;95051.66;;;7.78;100.00
73674;BME280;61975;48.660;10.164;2023-11-21T06:22:29;95055.59;;;7.77;100.00
73674;BME280;61975;48.660;10.164;2023-11-21T06:24:55;95058.66;;;7.65;100.00
73674;BME280;61975;48.660;10.164;2023-11-21T06:27:21;95068.28;;;7.45;100.00
73674;BME280;61975;48.660;10.164;2023-11-21T06:29:46;95062.88;;;7.55;100.00
73674;BME280;61975;48.660;10.164;2023-11-21T06:32:12;95074.34;;;7.57;100.00
73674;BME280;61975;48.660;10.164;2023-11-21T06:34:38;95066.34;;;7.45;100.00
73674;BME280;61975;48.660;10.164;2023-11-21T06:37:03;95069.94;;;7.53;100.00
73674;BME280;61975;48.660;10.164;2023-11-21T06:39:29;95070.69;;;7.50;100.00
73674;BME280;61975;48.660;10.164;2023-11-21T06:41:54;95074.53;;;7.38;100.00
73674;BME280;61975;48.660;10.164;2023-11-21T06:44:19;95075.84;;;7.51;100.00
73674;BME280;61975;48.660;10.164;2023-11-21T06:46:45;95077.47;;;7.56;100.00
73674;BME280;61975;48.660;10.164;2023-11-21T06:49:10;95085.03;;;7.59;100.00
73674;BME280;61975;48.660;10.164;2023-11-21T06:51:36;95089.38;;;7.60;100.00
73674;BME280;61975;48.660;10.164;2023-11-21T06:54:01;95083.84;;;7.60;100.00
73674;BME280;61975;48.660;10.164;2023-11-21T06:56:27;95090.97;;;7.61;100.00
73674;BME280;61975;48.660;10.164;2023-11-21T06:58:52;95094.50;;;7.61;100.00
73674;BME280;61975;48.660;10.164;2023-11-21T07:01:19;95096.50;;;7.61;100.00
73674;BME280;61975;48.660;10.164;2023-11-21T07:03:44;95098.09;;;7.62;100.00
73674;BME280;61975;48.660;10.164;2023-11-21T07:06:10;95101.25;;;7.64;100.00
73674;BME280;61975;48.660;10.164;2023-11-21T07:08:36;95093.38;;;7.66;100.00
73674;BME280;61975;48.660;10.164;2023-11-21T07:11:02;95106.81;;;7.67;100.00
73674;BME280;61975;48.660;10.164;2023-11-21T07:13:28;95108.41;;;7.68;100.00
73674;BME280;61975;48.660;10.164;2023-11-21T07:15:53;95108.03;;;7.70;100.00
73674;BME280;61975;48.660;10.164;2023-11-21T07:18:19;95118.69;;;7.71;100.00
73674;BME280;61975;48.660;10.164;2023-11-21T07:20:44;95113.97;;;7.72;100.00
73674;BME280;61975;48.660;10.164;2023-11-21T07:23:10;95115.56;;;7.73;100.00
73674;BME280;61975;48.660;10.164;2023-11-21T07:25:35;95118.75;;;7.75;100.00
73674;BME280;61975;48.660;10.164;2023-11-21T07:28:01;95113.63;;;7.77;100.00
73674;BME280;61975;48.660;10.164;2023-11-21T07:30:26;95123.94;;;7.80;100.00
73674;BME280;61975;48.660;10.164;2023-11-21T07:32:52;95118.41;;;7.80;100.00
73674;BME280;61975;48.660;10.164;2023-11-21T07:35:18;95134.22;;;7.83;100.00
73674;BME280;61975;48.660;10.164;2023-11-21T07:37:43;95133.47;;;7.86;100.00
73674;BME280;61975;48.660;10.164;2023-11-21T07:40:08;95132.28;;;7.87;100.00
73674;BME280;61975;48.660;10.164;2023-11-21T07:42:37;95140.25;;;7.92;100.00
73674;BME280;61975;48.660;10.164;2023-11-21T07:45:03;95133.19;;;7.98;100.00
73674;BME280;61975;48.660;10.164;2023-11-21T07:47:28;95139.97;;;8.04;100.00
73674;BME280;61975;48.660;10.164;2023-11-21T07:49:54;95144.41;;;8.12;100.00
73674;BME280;61975;48.660;10.164;2023-11-21T07:52:21;95138.16;;;8.18;100.00
73674;BME280;61975;48.660;10.164;2023-11-21T07:54:47;95144.94;;;8.24;100.00
73674;BME280;61975;48.660;10.164;2023-11-21T07:57:12;95143.03;;;8.28;100.00
73674;BME280;61975;48.660;10.164;2023-11-21T07:59:39;95136.78;;;8.35;100.00
73674;BME280;61975;48.660;10.164;2023-11-21T08:02:06;95135.25;;;8.41;100.00
73674;BME280;61975;48.660;10.164;2023-11-21T08:04:32;95141.59;;;8.45;100.00
73674;BME280;61975;48.660;10.164;2023-11-21T08:06:57;95137.28;;;8.48;100.00
73674;BME280;61975;48.660;10.164;2023-11-21T08:09:23;95142.84;;;8.51;100.00
73674;BME280;61975;48.660;10.164;2023-11-21T08:11:49;95146.44;;;8.55;100.00
73674;BME280;61975;48.660;10.164;2023-11-21T08:14:14;95147.25;;;8.59;100.00
73674;BME280;61975;48.660;10.164;2023-11-21T08:16:40;95150.84;;;8.63;100.00
73674;BME280;61975;48.660;10.164;2023-11-21T08:19:05;95151.66;;;8.67;100.00
73674;BME280;61975;48.660;10.164;2023-11-21T08:21:31;95150.91;;;8.70;100.00
73674;BME280;61975;48.660;10.164;2023-11-21T08:23:56;95152.53;;;8.75;100.00
73674;BME280;61975;48.660;10.164;2023-11-21T08:26:22;95159.25;;;8.77;100.00
73674;BME280;61975;48.660;10.164;2023-11-21T08:28:47;95163.22;;;8.80;100.00
73674;BME280;61975;48.660;10.164;2023-11-21T08:31:13;95164.03;;;8.80;100.00
73674;BME280;61975;48.660;10.164;2023-11-21T08:33:38;95171.94;;;8.82;100.00
73674;BME280;61975;48.660;10.164;2023-11-21T08:36:10;95159.69;;;8.79;100.00
73674;BME280;61975;48.660;10.164;2023-11-21T08:38:37;95162.47;;;8.83;100.00
73674;BME280;61975;48.660;10.164;2023-11-21T08:41:05;95171.97;;;8.85;100.00
73674;BME280;61975;48.660;10.164;2023-11-21T08:43:34;95174.72;;;8.82;100.00
73674;BME280;61975;48.660;10.164;2023-11-21T08:45:59;95170.81;;;8.90;100.00
73674;BME280;61975;48.660;10.164;2023-11-21T08:48:24;95166.88;;;8.91;100.00
73674;BME280;61975;48.660;10.164;2023-11-21T08:50:50;95176.72;;;8.85;100.00
73674;BME280;61975;48.660;10.164;2023-11-21T08:53:16;95167.28;;;8.89;100.00
73674;BME280;61975;48.660;10.164;2023-11-21T08:55:42;95166.47;;;8.92;100.00
73674;BME280;61975;48.660;10.164;2023-11-21T08:58:09;95171.91;;;8.78;100.00
73674;BME280;61975;48.660;10.164;2023-11-21T09:00:34;95178.28;;;8.82;100.00
73674;BME280;61975;48.660;10.164;2023-11-21T09:03:01;95164.94;;;8.95;100.00
73674;BME280;61975;48.660;10.164;2023-11-21T09:05:27;95172.50;;;9.01;100.00
73674;BME280;61975;48.660;10.164;2023-11-21T09:07:52;95173.69;;;9.04;100.00
73674;BME280;61975;48.660;10.164;2023-11-21T09:10:18;95175.69;;;9.07;100.00
73674;BME280;61975;48.660;10.164;2023-11-21T09:12:44;95175.22;;;8.94;100.00
73674;BME280;61975;48.660;10.164;2023-11-21T09:15:10;95177.22;;;9.01;100.00
73674;BME280;61975;48.660;10.164;2023-11-21T09:17:36;95185.97;;;9.03;100.00
73674;BME280;61975;48.660;10.164;2023-11-21T09:20:02;95188.72;;;9.03;100.00
73674;BME280;61975;48.660;10.164;2023-11-21T09:22:30;95197.88;;;9.10;100.00
73674;BME280;61975;48.660;10.164;2023-11-21T09:24:57;95191.63;;;9.20;100.00
73674;BME280;61975;48.660;10.164;2023-11-21T09:27:23;95187.69;;;9.21;100.00
73674;BME280;61975;48.660;10.164;2023-11-21T09:29:48;95190.03;;;9.19;100.00
73674;BME280;61975;48.660;10.164;2023-11-21T09:32:14;95190.50;;;9.28;100.00
73674;BME280;61975;48.660;10.164;2023-11-21T09:34:41;95194.09;;;9.36;100.00
73674;BME280;61975;48.660;10.164;2023-11-21T09:37:07;95192.94;;;9.40;100.00
73674;BME280;61975;48.660;10.164;2023-11-21T09:39:33;95199.63;;;9.32;100.00
73674;BME280;61975;48.660;10.164;2023-11-21T09:42:11;95198.81;;;9.32;100.00
73674;BME280;61975;48.660;10.164;2023-11-21T09:44:46;95199.66;;;9.39;100.00
73674;BME280;61975;48.660;10.164;2023-11-21T09:47:15;95194.53;;;9.41;100.00
73674;BME280;61975;48.660;10.164;2023-11-21T09:49:47;95200.47;;;9.43;100.00
73674;BME280;61975;48.660;10.164;2023-11-21T09:52:33;95206.41;;;9.42;100.00
73674;BME280;61975;48.660;10.164;2023-11-21T09:55:06;95205.63;;;9.45;100.00
73674;BME280;61975;48.660;10.164;2023-11-21T09:57:32;95205.66;;;9.48;100.00
73674;BME280;61975;48.660;10.164;2023-11-21T10:00:00;95206.06;;;9.50;100.00
73674;BME280;61975;48.660;10.164;2023-11-21T10:02:29;95204.09;;;9.54;100.00
73674;BME280;61975;48.660;10.164;2023-11-21T10:04:56;95204.91;;;9.58;100.00
73674;BME280;61975;48.660;10.164;2023-11-21T10:07:22;95205.75;;;9.62;100.00
73674;BME280;61975;48.660;10.164;2023-11-21T10:09:48;95202.59;;;9.64;100.00
73674;BME280;61975;48.660;10.164;2023-11-21T10:12:17;95201.78;;;9.63;100.00
73674;BME280;61975;48.660;10.164;2023-11-21T10:14:43;95195.47;;;9.66;100.00
73674;BME280;61975;48.660;10.164;2023-11-21T10:17:14;95191.91;;;9.69;100.00
73674;BME280;61975;48.660;10.164;2023-11-21T10:19:42;95205.75;;;9.62;100.00
73674;BME280;61975;48.660;10.164;2023-11-21T10:22:08;95197.81;;;9.64;100.00
73674;BME280;61975;48.660;10.164;2023-11-21T10:24:34;95200.25;;;9.69;100.00
73674;BME280;61975;48.660;10.164;2023-11-21T10:26:59;95200.19;;;9.62;100.00
73674;BME280;61975;48.660;10.164;2023-11-21T10:29:29;95195.41;;;9.52;100.00
73674;BME280;61975;48.660;10.164;2023-11-21T10:31:55;95199.34;;;9.58;100.00
73674;BME280;61975;48.660;10.164;2023-11-21T10:34:22;95197.03;;;9.64;100.00
73674;BME280;61975;48.660;10.164;2023-11-21T10:36:48;95193.47;;;9.67;100.00
73674;BME280;61975;48.660;10.164;2023-11-21T10:39:18;95193.50;;;9.70;100.00
73674;BME280;61975;48.660;10.164;2023-11-21T10:41:45;95201.00;;;9.70;100.00
73674;BME280;61975;48.660;10.164;2023-11-21T10:44:14;95200.63;;;9.71;100.00
73674;BME280;61975;48.660;10.164;2023-11-21T10:46:48;95195.91;;;9.79;100.00
73674;BME280;61975;48.660;10.164;2023-11-21T10:49:20;95199.81;;;9.67;100.00
73674;BME280;61975;48.660;10.164;2023-11-21T10:51:45;95206.47;;;9.56;100.00
73674;BME280;61975;48.660;10.164;2023-11-21T10:54:17;95200.56;;;9.57;100.00
73674;BME280;61975;48.660;10.164;2023-11-21T10:56:42;95212.09;;;9.66;100.00
73674;BME280;61975;48.660;10.164;2023-11-21T10:59:12;95210.50;;;9.65;100.00
73674;BME280;61975;48.660;10.164;2023-11-21T11:01:42;95212.91;;;9.70;100.00
73674;BME280;61975;48.660;10.164;2023-11-21T11:04:09;95202.63;;;9.71;100.00
73674;BME280;61975;48.660;10.164;2023-11-21T11:06:54;95205.72;;;9.59;100.00
73674;BME280;61975;48.660;10.164;2023-11-21T11:09:20;95199.75;;;9.53;100.00
73674;BME280;61975;48.660;10.164;2023-11-21T11:11:46;95196.97;;;9.53;100.00
73674;BME280;61975;48.660;10.164;2023-11-21T11:14:12;95193.00;;;9.54;100.00
73674;BME280;61975;48.660;10.164;2023-11-21T11:16:39;95199.44;;;9.69;100.00
73674;BME280;61975;48.660;10.164;2023-11-21T11:19:09;95193.53;;;9.81;100.00
73674;BME280;61975;48.660;10.164;2023-11-21T11:26:58;95197.97;;;9.99;100.00
73674;BME280;61975;48.660;10.164;2023-11-21T11:29:40;95193.66;;;10.05;100.00
73674;BME280;61975;48.660;10.164;2023-11-21T11:34:47;95194.88;;;10.08;100.00
73674;BME280;61975;48.660;10.164;2023-11-21T11:37:15;95195.69;;;10.19;100.00
73674;BME280;61975;48.660;10.164;2023-11-21T11:39:42;95183.84;;;10.29;100.00
73674;BME280;61975;48.660;10.164;2023-11-21T11:42:12;95192.59;;;10.38;100.00
73674;BME280;61975;48.660;10.164;2023-11-21T11:47:29;95190.63;;;10.42;96.67
73674;BME280;61975;48.660;10.164;2023-11-21T11:50:09;95198.97;;;10.45;100.00
73674;BME280;61975;48.660;10.164;2023-11-21T11:52:45;95186.69;;;10.46;100.00
73674;BME280;61975;48.660;10.164;2023-11-21T11:55:15;95190.66;;;10.56;100.00
73674;BME280;61975;48.660;10.164;2023-11-21T11:57:46;95198.97;;;10.52;100.00
73674;BME280;61975;48.660;10.164;2023-11-21T12:00:18;95196.22;;;10.52;100.00
73674;BME280;61975;48.660;10.164;2023-11-21T12:03:00;95196.97;;;10.42;100.00
73674;BME280;61975;48.660;10.164;2023-11-21T12:05:30;95203.69;;;10.34;98.03
73674;BME280;61975;48.660;10.164;2023-11-21T12:07:59;95198.13;;;10.31;96.74
73674;BME280;61975;48.660;10.164;2023-11-21T12:10:36;95196.94;;;10.39;96.23
73674;BME280;61975;48.660;10.164;2023-11-21T12:13:11;95197.34;;;10.37;91.98
73674;BME280;61975;48.660;10.164;2023-11-21T12:15:40;95198.56;;;10.50;90.63
73674;BME280;61975;48.660;10.164;2023-11-21T12:18:06;95198.19;;;10.55;91.38
73674;BME280;61975;48.660;10.164;2023-11-21T12:20:32;95196.56;;;10.47;89.29
73674;BME280;61975;48.660;10.164;2023-11-21T12:23:04;95195.00;;;10.53;89.16
73674;BME280;61975;48.660;10.164;2023-11-21T12:25:31;95193.81;;;10.61;89.14
73674;BME280;61975;48.660;10.164;2023-11-21T12:28:02;95199.81;;;10.70;88.36
73674;BME280;61975;48.660;10.164;2023-11-21T12:30:33;95196.63;;;10.75;88.20
73674;BME280;61975;48.660;10.164;2023-11-21T12:33:01;95198.19;;;10.55;88.21
73674;BME280;61975;48.660;10.164;2023-11-21T12:35:29;95205.72;;;10.62;89.19
73674;BME280;61975;48.660;10.164;2023-11-21T12:37:56;95209.66;;;10.50;89.17
73674;BME280;61975;48.660;10.164;2023-11-21T12:40:25;95202.94;;;10.55;89.36
73674;BME280;61975;48.660;10.164;2023-11-21T12:42:57;95208.47;;;10.51;90.06
73674;BME280;61975;48.660;10.164;2023-11-21T12:45:25;95216.75;;;10.37;91.60
73674;BME280;61975;48.660;10.164;2023-11-21T12:47:55;95213.66;;;10.49;90.67
73674;BME280;61975;48.660;10.164;2023-11-21T12:50:22;95218.81;;;10.51;90.10
73674;BME280;61975;48.660;10.164;2023-11-21T12:52:50;95219.22;;;10.63;90.45
73674;BME280;61975;48.660;10.164;2023-11-21T12:55:25;95211.72;;;10.71;88.85
73674;BME280;61975;48.660;10.164;2023-11-21T12:57:54;95214.47;;;10.74;88.75
73674;BME280;61975;48.660;10.164;2023-11-21T13:00:28;95218.03;;;10.64;89.20